Impacts METAR Board
IDs:

KCLE - Cleveland/Hopkins In, OH, US

Updated at: 1300 UTC 05 Apr 2020
Potential Impact None Slight Moderate High
Time 05/01Z 05/02Z 05/03Z 05/04Z 05/05Z 05/06Z 05/07Z 05/08Z 05/09Z 05/10Z 05/11Z 05/12Z 05/13Z
Temp55 56 57 53 52 51 49 47 44 43 42 42 42
Dewpt36 37 37 39 39 37 37 37 39 38 38 37 37
Altim30.03 30.02 30.02 30.04 30.05 30.06 30.06 30.07 30.08 30.09 30.11 30.13 30.15
VIS10 10 10 10 10 10 10 10 10 10 10 10 10
CIG70 60 90 65 65 55 50 50 9 7 16 7 8
CoverOVCOVCOVCOVCOVCOVCOVCBKNOVCOVCOVCOVCOVC
FltCatVFRVFRVFRVFRVFRVFRVFRVFRIFRIFRMVFRIFRIFR
WX--------------------------
WDir209003503403303203401020202010
WSpd3 4 0 6 4 9 7 6 10 10 7 9 8
WGst-- -- -- -- -- -- -- -- -- -- -- -- --
Raw hourly METARs
KCLE 050051Z 02003KT 10SM BKN070 OVC085 13/02 A3003 RMK AO2 SLP170 T01280022
KCLE 050151Z 09004KT 10SM BKN060 OVC075 13/03 A3002 RMK AO2 SLP167 T01330028
KCLE 050251Z 00000KT 10SM OVC090 14/03 A3002 RMK AO2 SLP167 T01390028 51002
KCLE 050351Z 35006KT 10SM OVC065 12/04 A3004 RMK AO2 SLP174 T01170039
KCLE 050451Z 34004KT 10SM OVC065 11/04 A3005 RMK AO2 SLP175 T01110039 401781006
KCLE 050551Z 33009KT 10SM OVC055 11/03 A3006 RMK AO2 SLP177 T01060028 10139 20106 51010
KCLE 050651Z 32007KT 10SM OVC050 09/03 A3006 RMK AO2 SLP179 T00940028
KCLE 050751Z 34006KT 10SM BKN050 08/03 A3007 RMK AO2 SLP182 T00830028
KCLE 050851Z 01010KT 10SM OVC009 07/04 A3008 RMK AO2 SLP189 T00670039 53009
KCLE 050951Z 02010KT 10SM OVC007 06/03 A3009 RMK AO2 SLP192 T00610033
KCLE 051051Z 02007KT 10SM SCT007 OVC016 06/03 A3011 RMK AO2 SLP197 T00560033
KCLE 051151Z 02009KT 10SM OVC007 06/03 A3013 RMK AO2 SLP205 T00560028 10106 20056 53014
KCLE 051251Z 01008KT 10SM OVC008 06/03 A3015 RMK AO2 SLP212 T00560028



Page loaded:  13:19 UTC  |   06:19 AM Pacific  |   07:19 AM Mountain  |   08:19 AM Central  |   09:19 AM Eastern

 

ADVISORIES

FORECASTS

FORECASTS

OBSERVATIONS

USER TOOLS

ABOUT US